Time;durP1;ratioP1;P1;durP2;ratioP2;P2;SDS_P1;SDS_P2;PMS_P1;PMS_P2;Temp;Humidity;BMP_temperature;BMP_pressure;BME280_temperature;BME280_humidity;BME280_pressure;Samples;Min_cycle;Max_cycle;Signal;HPM_P1;HPM_P2
2020/12/13 00:00:51;;;;;;;;;31.75;30.75;;;;;25.08;57.52;98922.91;4905139;29;9644;-66
2020/12/13 00:03:19;;;;;;;;;32.33;29.00;;;;;25.04;57.65;98922.06;4888969;29;9742;-67
2020/12/13 00:05:48;;;;;;;;;33.75;28.00;;;;;25.04;57.30;98927.47;4906179;29;9593;-67
2020/12/13 00:08:17;;;;;;;;;29.00;26.00;;;;;25.09;57.13;98939.91;4906150;29;10233;-66
2020/12/13 00:10:49;;;;;;;;;30.25;29.75;;;;;25.10;57.06;98938.75;4905524;29;9505;-67
2020/12/13 00:13:17;;;;;;;;;30.50;27.75;;;;;25.13;57.18;98938.81;4904560;29;9728;-66
2020/12/13 00:15:45;;;;;;;;;28.00;26.50;;;;;25.06;57.15;98933.28;4904817;29;9676;-67
2020/12/13 00:18:14;;;;;;;;;35.75;32.25;;;;;25.12;57.92;98945.34;4885835;29;9644;-68
2020/12/13 00:20:42;;;;;;;;;35.25;31.25;;;;;25.15;57.68;98946.56;4904503;29;9907;-67
2020/12/13 00:23:15;;;;;;;;;46.75;37.75;;;;;25.11;57.45;98941.09;4910359;29;9960;-66
2020/12/13 00:25:43;;;;;;;;;35.00;31.50;;;;;25.17;57.93;98960.47;4914625;29;11014;-66
2020/12/13 00:28:12;;;;;;;;;29.25;28.75;;;;;25.13;57.54;98967.72;4915993;29;9860;-67
2020/12/13 00:30:40;;;;;;;;;31.75;29.50;;;;;25.10;57.68;98985.41;4911121;29;9459;-67
2020/12/13 00:33:09;;;;;;;;;39.75;32.50;;;;;25.06;57.80;98983.78;4911640;29;9433;-67
2020/12/13 00:35:38;;;;;;;;;35.25;29.25;;;;;25.00;58.08;98986.78;4907556;29;10532;-67
2020/12/13 00:38:06;;;;;;;;;34.75;30.00;;;;;24.93;57.78;98981.22;4897278;29;9631;-67
2020/12/13 00:40:35;;;;;;;;;28.00;26.25;;;;;24.92;57.65;98984.25;4898048;29;9650;-67
2020/12/13 00:43:03;;;;;;;;;39.75;30.75;;;;;24.91;57.65;98986.19;4897084;29;9570;-66
2020/12/13 00:45:33;;;;;;;;;33.00;32.25;;;;;24.86;57.17;98977.59;4893448;29;9935;-67
2020/12/13 00:48:05;;;;;;;;;40.25;31.50;;;;;24.88;57.21;98992.28;4900497;29;9707;-67
2020/12/13 00:50:36;;;;;;;;;31.00;27.25;;;;;24.86;56.49;98989.16;4908929;29;9912;-67
2020/12/13 00:53:06;;;;;;;;;26.75;25.25;;;;;24.94;56.20;99007.06;4910342;29;9667;-66
2020/12/13 00:55:36;;;;;;;;;47.50;36.25;;;;;24.95;56.42;99014.03;4896167;29;9595;-67
2020/12/13 00:58:08;;;;;;;;;28.00;25.00;;;;;24.77;56.42;98977.03;4897830;29;10801;-68
2020/12/13 01:00:55;;;;;;;;;27.00;22.50;;;;;24.94;56.39;99001.66;4891023;29;9606;-67
2020/12/13 01:03:28;;;;;;;;;24.33;22.67;;;;;24.76;56.27;98973.53;4890490;29;10277;-67
2020/12/13 01:05:56;;;;;;;;;21.00;19.33;;;;;25.06;56.22;99008.09;4905968;29;9536;-66
2020/12/13 01:08:28;;;;;;;;;25.00;23.00;;;;;25.02;56.88;99013.41;4913655;29;9449;-67
2020/12/13 01:10:56;;;;;;;;;27.33;22.67;;;;;25.07;56.23;99010.44;4908508;29;9411;-67
2020/12/13 01:13:28;;;;;;;;;17.00;16.67;;;;;25.13;57.51;99019.81;4897323;29;9351;-66
2020/12/13 01:16:01;;;;;;;;;22.67;20.00;;;;;25.12;56.05;99020.94;4898257;29;9207;-68
2020/12/13 01:18:30;;;;;;;;;23.00;19.67;;;;;25.11;56.05;99021.28;4903027;29;9525;-67
2020/12/13 01:20:59;;;;;;;;;24.33;19.67;;;;;25.18;56.63;99030.31;4908770;29;10163;-68
2020/12/13 01:23:29;;;;;;;;;22.33;19.33;;;;;25.26;56.57;99036.63;4900334;29;9405;-67
2020/12/13 01:25:57;;;;;;;;;18.00;18.00;;;;;25.26;57.56;99034.72;4906072;29;9261;-68
2020/12/13 01:28:27;;;;;;;;;18.67;16.33;;;;;25.33;57.11;99036.75;4902906;29;9279;-67
2020/12/13 01:30:57;;;;;;;;;18.67;18.67;;;;;25.38;57.34;99041.09;4905379;29;9497;-68
2020/12/13 01:33:26;;;;;;;;;16.67;16.67;;;;;25.46;57.43;99038.16;4913385;29;9224;-66
2020/12/13 01:35:55;;;;;;;;;24.67;18.33;;;;;25.52;56.36;99046.75;4908196;29;9195;-66
2020/12/13 01:38:24;;;;;;;;;14.00;13.25;;;;;25.57;56.96;99049.16;4894187;29;9370;-68
2020/12/13 01:41:01;;;;;;;;;14.67;14.33;;;;;25.56;57.34;99037.56;4900383;29;8883;-67
2020/12/13 01:43:31;;;;;;;;;17.67;13.67;;;;;25.60;58.52;99041.13;4893853;29;8956;-68
2020/12/13 01:46:00;;;;;;;;;13.75;13.75;;;;;25.71;57.86;99051.38;4907385;29;8958;-68
2020/12/13 01:48:29;;;;;;;;;14.33;12.67;;;;;25.75;57.29;99044.88;4895684;29;9161;-69
2020/12/13 01:51:14;;;;;;;;;16.00;13.00;;;;;25.70;56.00;99037.06;4895205;29;8949;-68
2020/12/13 01:53:45;;;;;;;;;15.25;13.50;;;;;25.77;57.25;99036.41;4896118;29;8976;-67
2020/12/13 01:56:15;;;;;;;;;13.25;13.25;;;;;25.76;56.76;99038.34;4878614;29;8888;-68
2020/12/13 01:58:49;;;;;;;;;17.75;14.50;;;;;25.90;56.63;99054.78;4904931;29;8885;-70
2020/12/13 02:01:18;;;;;;;;;14.00;12.50;;;;;25.86;56.29;99048.56;4893491;29;8945;-68
2020/12/13 02:03:58;;;;;;;;;15.75;12.50;;;;;25.92;56.24;99051.72;4893236;29;8849;-68
2020/12/13 02:06:32;;;;;;;;;13.25;12.75;;;;;25.98;55.72;99053.78;4877675;29;8867;-68
2020/12/13 02:09:01;;;;;;;;;9.00;9.00;;;;;25.96;57.35;99056.06;4894104;29;8873;-68
2020/12/13 02:11:31;;;;;;;;;11.50;11.50;;;;;26.02;56.77;99064.63;4888597;29;8907;-71
2020/12/13 02:14:00;;;;;;;;;9.50;7.00;;;;;26.08;57.19;99070.50;4892459;29;8887;-69
2020/12/13 02:16:30;;;;;;;;;7.75;7.75;;;;;26.05;57.18;99063.91;4888887;29;8895;-69
2020/12/13 02:19:00;;;;;;;;;11.75;9.75;;;;;26.17;56.48;99071.81;4895516;29;9288;-69
2020/12/13 02:21:29;;;;;;;;;8.50;8.00;;;;;26.21;55.92;99075.34;4892919;29;9004;-69
2020/12/13 02:23:57;;;;;;;;;13.25;12.75;;;;;26.22;56.05;99068.81;4892666;29;8864;-71
2020/12/13 02:26:26;;;;;;;;;12.25;12.25;;;;;26.30;55.46;99073.19;4892258;29;8865;-69
2020/12/13 02:28:54;;;;;;;;;10.00;8.50;;;;;26.35;56.56;99079.47;4892830;29;8952;-70
2020/12/13 02:31:22;;;;;;;;;7.75;7.75;;;;;26.39;56.48;99086.47;4892317;29;9050;-67
2020/12/13 02:33:52;;;;;;;;;11.00;9.00;;;;;26.44;55.82;99085.38;4888917;29;8907;-67
2020/12/13 02:36:20;;;;;;;;;8.00;8.00;;;;;26.49;56.77;99077.75;4891549;29;8857;-67
2020/12/13 02:38:49;;;;;;;;;10.25;9.75;;;;;26.51;56.29;99080.09;4893021;29;8885;-67
2020/12/13 02:41:17;;;;;;;;;9.25;8.75;;;;;26.57;56.09;99075.91;4894476;29;8869;-66
2020/12/13 02:43:46;;;;;;;;;2.75;2.75;;;;;26.61;56.08;99076.75;4894382;29;8861;-67
2020/12/13 02:46:14;;;;;;;;;12.50;11.50;;;;;26.59;56.37;99070.94;4892745;29;8853;-68
2020/12/13 02:48:42;;;;;;;;;13.00;12.25;;;;;26.63;56.36;99069.06;4894219;29;9547;-67
2020/12/13 02:51:11;;;;;;;;;11.50;11.50;;;;;26.73;56.35;99068.41;4894004;29;9603;-66
2020/12/13 02:53:39;;;;;;;;;10.25;7.00;;;;;26.72;56.22;99058.75;4892441;29;8877;-68
2020/12/13 02:56:07;;;;;;;;;12.75;10.25;;;;;26.81;56.18;99061.19;4894901;29;8913;-68
2020/12/13 02:58:36;;;;;;;;;8.50;7.25;;;;;26.85;56.05;99062.78;4894930;29;8864;-67
2020/12/13 03:01:04;;;;;;;;;8.25;8.25;;;;;26.92;55.44;99052.03;4894434;29;8992;-70
2020/12/13 03:03:33;;;;;;;;;7.75;7.75;;;;;26.94;55.74;99044.34;4896026;29;8862;-66
2020/12/13 03:06:01;;;;;;;;;7.50;6.25;;;;;26.98;55.73;99046.34;4896671;29;8838;-66
2020/12/13 03:08:29;;;;;;;;;9.00;8.00;;;;;27.06;55.30;99048.75;4895696;29;9021;-67
2020/12/13 03:10:57;;;;;;;;;11.00;10.00;;;;;27.10;55.51;99052.28;4895480;29;8928;-68
2020/12/13 03:13:26;;;;;;;;;11.75;9.50;;;;;27.15;55.54;99046.56;4895474;29;8869;-69
2020/12/13 03:15:55;;;;;;;;;11.75;10.75;;;;;27.15;55.44;99041.13;4896926;29;8949;-70
2020/12/13 03:18:26;;;;;;;;;9.25;9.25;;;;;27.21;55.09;99042.38;4897252;29;8857;-68
2020/12/13 03:20:54;;;;;;;;;10.50;10.50;;;;;27.20;54.89;99035.38;4897405;29;8850;-67
2020/12/13 03:23:23;;;;;;;;;8.00;6.25;;;;;27.29;54.67;99041.28;4880889;29;8861;-68
2020/12/13 03:25:52;;;;;;;;;6.75;6.75;;;;;27.28;54.97;99036.25;4894297;29;8864;-68
2020/12/13 03:28:20;;;;;;;;;11.50;9.00;;;;;27.29;55.09;99033.16;4895056;29;8884;-69
2020/12/13 03:30:49;;;;;;;;;13.50;9.75;;;;;27.31;54.97;99030.06;4893814;29;8884;-67
2020/12/13 03:33:18;;;;;;;;;13.00;10.00;;;;;27.34;54.51;99028.53;4899515;29;8844;-67
2020/12/13 03:35:48;;;;;;;;;12.50;11.00;;;;;27.38;54.50;99032.06;4898111;29;8861;-67
2020/12/13 03:38:16;;;;;;;;;11.25;10.50;;;;;27.34;54.39;99021.19;4894025;29;8869;-67
2020/12/13 03:40:45;;;;;;;;;7.50;7.50;;;;;27.34;54.49;99018.47;4891318;29;8845;-67
2020/12/13 03:43:14;;;;;;;;;11.75;8.75;;;;;27.46;54.34;99030.97;4900812;29;8841;-67
2020/12/13 03:45:42;;;;;;;;;12.50;9.75;;;;;27.49;54.32;99032.94;4901699;29;8926;-67
2020/12/13 03:48:10;;;;;;;;;10.25;9.25;;;;;27.52;53.98;99010.53;4899797;29;8907;-68
2020/12/13 03:50:39;;;;;;;;;10.00;8.50;;;;;27.64;54.21;99014.94;4903823;29;8877;-68
2020/12/13 03:53:12;;;;;;;;;9.25;9.25;;;;;27.70;53.97;99005.31;4895281;29;8892;-68
2020/12/13 03:55:42;;;;;;;;;9.00;9.00;;;;;27.77;53.83;99005.38;4895507;29;8898;-67
2020/12/13 03:58:13;;;;;;;;;10.75;8.25;;;;;27.84;53.50;99003.50;4894010;29;8899;-66
2020/12/13 04:00:42;;;;;;;;;11.50;8.25;;;;;27.90;53.26;99002.00;4895615;29;8889;-68
2020/12/13 04:03:12;;;;;;;;;12.00;9.00;;;;;27.95;53.24;98998.16;4894028;29;8941;-67
2020/12/13 04:05:40;;;;;;;;;8.75;7.50;;;;;27.96;53.18;98988.84;4898590;29;8986;-68
2020/12/13 04:08:08;;;;;;;;;0.00;0.00;;;;;27.99;53.08;98984.63;4896769;29;8869;-68
2020/12/13 04:10:37;;;;;;;;;14.25;11.50;;;;;28.04;53.04;98981.56;4902778;29;9692;-68
2020/12/13 04:13:05;;;;;;;;;10.25;8.00;;;;;28.08;52.68;98979.66;4911667;29;9792;-67
2020/12/13 04:15:34;;;;;;;;;12.50;9.75;;;;;28.11;52.79;98970.75;4913260;29;9604;-67
2020/12/13 04:18:03;;;;;;;;;10.75;9.00;;;;;28.12;52.92;98964.94;4893798;29;8853;-68
2020/12/13 04:20:32;;;;;;;;;19.75;18.25;;;;;28.15;53.16;98964.19;4897351;29;8944;-68
2020/12/13 04:23:01;;;;;;;;;9.75;8.00;;;;;28.15;53.36;98955.28;4906053;29;8845;-68
2020/12/13 04:25:29;;;;;;;;;12.00;9.25;;;;;28.11;53.10;98954.47;4903137;29;9736;-68
2020/12/13 04:27:59;;;;;;;;;13.50;9.25;;;;;28.09;53.20;98954.09;4904096;29;8853;-68
2020/12/13 04:30:27;;;;;;;;;8.50;8.25;;;;;27.99;53.24;98933.09;4901333;29;8944;-67
2020/12/13 04:32:55;;;;;;;;;12.50;10.75;;;;;27.98;52.50;98926.91;4904444;29;8937;-67
2020/12/13 04:35:24;;;;;;;;;11.50;10.00;;;;;28.10;52.79;98932.00;4902487;29;9666;-69
2020/12/13 04:37:53;;;;;;;;;11.25;11.25;;;;;28.13;52.66;98927.75;4886423;29;8863;-68
2020/12/13 04:40:21;;;;;;;;;14.75;11.00;;;;;28.20;52.53;98922.38;4904037;29;8865;-68
2020/12/13 04:42:50;;;;;;;;;9.00;9.00;;;;;28.25;52.51;98922.03;4909015;29;8993;-68
2020/12/13 04:45:20;;;;;;;;;16.25;15.25;;;;;28.34;52.28;98906.19;4893742;29;8841;-67
2020/12/13 04:48:09;;;;;;;;;13.50;10.25;;;;;28.46;51.98;98905.88;4886599;29;8840;-68
2020/12/13 04:50:39;;;;;;;;;12.75;12.75;;;;;28.54;51.81;98899.31;4905673;29;8848;-68
2020/12/13 04:53:10;;;;;;;;;11.50;11.50;;;;;28.65;51.38;98898.53;4911730;29;8861;-70
2020/12/13 04:55:58;;;;;;;;;4.25;3.50;;;;;28.75;52.69;98892.34;4907097;29;8885;-68
2020/12/13 04:58:28;;;;;;;;;11.00;9.25;;;;;28.81;50.75;98890.81;4902748;29;8854;-68
2020/12/13 05:00:59;;;;;;;;;11.50;11.50;;;;;28.86;51.63;98882.31;4903872;29;8843;-68
2020/12/13 05:03:35;;;;;;;;;12.00;12.00;;;;;28.87;50.81;98867.59;4905018;29;8909;-70
2020/12/13 05:06:04;;;;;;;;;13.50;11.00;;;;;28.98;51.35;98867.59;4905233;29;8876;-69
2020/12/13 05:08:32;;;;;;;;;24.75;20.75;;;;;29.01;51.94;98861.41;4899742;29;8883;-71
2020/12/13 05:11:01;;;;;;;;;15.00;12.50;;;;;29.08;51.81;98862.19;4896677;29;8965;-70
2020/12/13 05:13:29;;;;;;;;;14.50;11.25;;;;;29.09;50.42;98861.03;4898164;29;8887;-70
2020/12/13 05:15:58;;;;;;;;;10.25;10.25;;;;;29.04;50.99;98845.09;4896939;29;8885;-70
2020/12/13 05:18:27;;;;;;;;;16.50;13.75;;;;;29.08;50.84;98850.53;4897878;29;8846;-69
2020/12/13 05:20:56;;;;;;;;;12.25;11.75;;;;;29.11;51.39;98847.06;4899205;29;8842;-69
2020/12/13 05:23:30;;;;;;;;;14.25;11.25;;;;;29.16;51.22;98843.94;4891773;29;8895;-68
2020/12/13 05:25:58;;;;;;;;;11.50;11.50;;;;;29.21;49.78;98843.56;4898505;29;8842;-70
2020/12/13 05:28:27;;;;;;;;;13.75;12.75;;;;;29.23;50.19;98825.72;4910308;29;8919;-69
2020/12/13 05:30:56;;;;;;;;;13.00;12.25;;;;;29.34;50.14;98820.25;4910029;29;8847;-69
2020/12/13 05:33:36;;;;;;;;;11.25;11.25;;;;;29.40;50.81;98817.94;4894451;29;8902;-69
2020/12/13 05:36:09;;;;;;;;;6.75;6.50;;;;;29.42;50.78;98805.53;4911040;29;8836;-68
2020/12/13 05:38:39;;;;;;;;;9.00;8.25;;;;;29.46;50.90;98805.53;4915072;29;8885;-68
2020/12/13 05:41:13;;;;;;;;;12.25;12.25;;;;;29.44;50.60;98797.75;4912142;29;8949;-69
2020/12/13 05:51:43;;;;;;;;;17.50;13.50;;;;;29.57;50.14;98781.03;4900774;29;8873;-68
2020/12/13 05:54:22;;;;;;;;;11.25;9.50;;;;;29.64;51.21;98773.66;4903234;29;8871;-69
2020/12/13 05:56:59;;;;;;;;;12.25;10.50;;;;;29.59;50.78;98757.75;4907373;29;8867;-68
2020/12/13 05:59:32;;;;;;;;;8.00;8.00;;;;;29.58;50.85;98748.03;4906495;29;8885;-68
2020/12/13 06:02:02;;;;;;;;;10.75;10.75;;;;;29.56;49.87;98750.38;4900923;29;8861;-68
2020/12/13 06:04:33;;;;;;;;;10.00;9.50;;;;;29.54;49.26;98748.03;4888927;29;8858;-69
2020/12/13 06:07:03;;;;;;;;;14.50;12.50;;;;;29.57;50.17;98740.28;4897226;29;8869;-68
2020/12/13 06:09:33;;;;;;;;;15.25;10.25;;;;;29.57;50.09;98738.31;4900379;29;8865;-66
2020/12/13 06:12:07;;;;;;;;;12.75;11.25;;;;;29.54;49.34;98723.59;4889242;29;8948;-66
2020/12/13 06:14:37;;;;;;;;;11.50;10.50;;;;;29.58;50.71;98725.50;4896014;29;8854;-67
2020/12/13 06:17:05;;;;;;;;;10.50;10.50;;;;;29.53;49.90;98721.25;4896133;29;8909;-67
2020/12/13 06:19:38;;;;;;;;;13.75;13.75;;;;;29.49;49.56;98715.06;4902198;29;8894;-67
2020/12/13 06:22:35;;;;;;;;;11.00;9.75;;;;;29.47;50.07;98711.97;4902123;29;9907;-67
2020/12/13 06:25:07;;;;;;;;;11.25;11.25;;;;;29.43;50.25;98703.81;4900184;29;8865;-67
2020/12/13 06:27:46;;;;;;;;;13.25;12.00;;;;;29.36;49.12;98695.66;4876426;29;8885;-67
2020/12/13 06:30:16;;;;;;;;;11.25;9.25;;;;;29.38;49.25;98695.25;4914428;29;8977;-67
2020/12/13 06:32:51;;;;;;;;;10.50;10.50;;;;;29.33;49.73;98687.50;4914282;29;8926;-67
2020/12/13 06:35:20;;;;;;;;;6.50;5.00;;;;;29.42;50.17;98685.97;4895736;29;8857;-66
2020/12/13 06:37:48;;;;;;;;;11.50;10.00;;;;;29.47;48.60;98679.34;4898342;29;8847;-67
2020/12/13 06:40:21;;;;;;;;;10.75;10.50;;;;;29.52;49.02;98676.22;4901282;29;8929;-67
2020/12/13 06:42:51;;;;;;;;;8.75;7.25;;;;;29.30;48.85;98633.97;4896041;29;8881;-67
2020/12/13 06:45:20;;;;;;;;;13.00;10.75;;;;;29.61;49.32;98671.13;4896226;29;9619;-67
2020/12/13 06:47:52;;;;;;;;;11.25;11.25;;;;;29.55;48.43;98659.13;4910065;29;8994;-67
2020/12/13 06:50:23;;;;;;;;;13.25;10.50;;;;;29.64;48.16;98670.34;4894491;29;8865;-67
2020/12/13 06:52:53;;;;;;;;;11.50;11.50;;;;;29.73;47.78;98662.53;4897961;29;8846;-67
2020/12/13 06:55:34;;;;;;;;;16.25;14.75;;;;;29.82;47.66;98643.06;4892860;29;9591;-66
2020/12/13 06:58:03;;;;;;;;;11.50;10.50;;;;;29.98;48.54;98650.72;4898212;29;8857;-66
2020/12/13 07:00:50;;;;;;;;;13.75;13.75;;;;;30.13;48.40;98647.53;4895078;29;9673;-67
2020/12/13 07:03:28;;;;;;;;;11.75;10.25;;;;;30.21;46.66;98644.75;4894923;29;8864;-67
2020/12/13 07:05:59;;;;;;;;;11.00;11.00;;;;;30.26;47.80;98644.34;4891324;29;8854;-67
2020/12/13 07:08:29;;;;;;;;;11.25;11.25;;;;;30.28;46.89;98637.31;4895531;29;8885;-67
2020/12/13 07:11:00;;;;;;;;;9.25;9.25;;;;;30.34;46.55;98624.06;4895303;29;8885;-67
2020/12/13 07:13:35;;;;;;;;;8.50;8.50;;;;;30.45;47.17;98619.28;4871126;29;8964;-67
2020/12/13 07:16:27;;;;;;;;;9.75;9.75;;;;;30.56;46.76;98621.91;4896356;29;8857;-67
2020/12/13 07:19:04;;;;;;;;;10.75;7.00;;;;;30.69;46.42;98621.03;4895469;29;9641;-67
2020/12/13 07:21:34;;;;;;;;;8.00;8.00;;;;;30.79;46.00;98619.38;4886559;29;8861;-67
2020/12/13 07:24:04;;;;;;;;;13.25;12.50;;;;;30.83;46.02;98612.72;4878712;29;8942;-67
2020/12/13 07:26:35;;;;;;;;;11.75;9.00;;;;;30.86;46.04;98608.44;4895351;29;8829;-68
2020/12/13 07:29:05;;;;;;;;;10.00;10.00;;;;;30.85;45.90;98611.56;4895640;29;8892;-67
2020/12/13 07:31:37;;;;;;;;;13.50;13.50;;;;;30.79;44.65;98592.94;4896349;29;8869;-68
2020/12/13 07:34:06;;;;;;;;;9.50;9.00;;;;;30.81;44.79;98597.97;4899418;29;8853;-67
2020/12/13 07:36:35;;;;;;;;;12.75;10.25;;;;;30.80;46.00;98586.31;4893865;29;8829;-68
2020/12/13 07:39:06;;;;;;;;;9.50;9.00;;;;;30.85;45.83;98592.50;4895920;29;8876;-67
2020/12/13 07:41:35;;;;;;;;;11.75;10.00;;;;;30.87;44.83;98585.47;4896769;29;8857;-67
2020/12/13 07:44:06;;;;;;;;;11.25;8.75;;;;;30.89;45.39;98585.81;4897588;29;8952;-68
2020/12/13 07:46:37;;;;;;;;;12.00;9.50;;;;;30.89;45.18;98583.09;4896810;29;8958;-68
2020/12/13 07:49:18;;;;;;;;;11.75;10.00;;;;;30.88;46.54;98581.56;4896675;29;8850;-68
2020/12/13 07:51:49;;;;;;;;;9.25;8.00;;;;;30.87;45.39;98581.97;4897375;29;8873;-68
2020/12/13 07:54:23;;;;;;;;;9.75;8.75;;;;;30.83;44.75;98580.06;4897085;29;8845;-68
2020/12/13 07:57:10;;;;;;;;;7.00;7.00;;;;;30.78;45.96;98568.81;4897788;29;8845;-68
2020/12/13 07:59:38;;;;;;;;;8.75;8.50;;;;;30.73;46.32;98558.38;4895946;29;8850;-68
2020/12/13 08:02:08;;;;;;;;;10.50;8.50;;;;;30.73;45.31;98569.28;4898336;29;8877;-67
2020/12/13 08:04:37;;;;;;;;;9.75;7.75;;;;;30.70;45.96;98567.34;4898412;29;8849;-67
2020/12/13 08:07:10;;;;;;;;;10.50;10.50;;;;;30.68;45.31;98564.25;4903036;29;8855;-67
2020/12/13 08:09:42;;;;;;;;;11.00;9.00;;;;;30.69;44.18;98563.09;4910372;29;9603;-68
2020/12/13 08:12:11;;;;;;;;;9.50;8.25;;;;;30.72;45.10;98556.84;4909773;29;8867;-68
2020/12/13 08:14:40;;;;;;;;;7.00;7.00;;;;;30.80;45.38;98555.56;4910142;29;8891;-68
2020/12/13 08:17:09;;;;;;;;;10.25;9.50;;;;;30.91;45.47;98556.22;4917770;29;8843;-67
2020/12/13 08:19:49;;;;;;;;;12.00;9.75;;;;;30.99;45.66;98554.97;4917393;29;8852;-67
2020/12/13 08:22:26;;;;;;;;;8.25;6.25;;;;;31.08;44.73;98554.47;4908688;29;8865;-67
2020/12/13 08:24:56;;;;;;;;;8.75;7.75;;;;;31.13;45.55;98559.47;4917343;29;8847;-67
2020/12/13 08:27:27;;;;;;;;;11.25;9.75;;;;;31.05;43.83;98538.94;4913231;29;8843;-67
2020/12/13 08:29:58;;;;;;;;;9.25;9.00;;;;;31.14;45.22;98552.88;4912360;29;8865;-67
2020/12/13 08:32:32;;;;;;;;;11.00;11.00;;;;;31.13;45.35;98554.81;4895402;29;8863;-67
2020/12/13 08:35:10;;;;;;;;;8.75;8.75;;;;;31.14;44.66;98552.88;4895204;29;8885;-67
2020/12/13 08:37:40;;;;;;;;;10.75;7.25;;;;;31.13;46.28;98546.66;4895608;29;8897;-67
2020/12/13 08:40:35;;;;;;;;;9.25;8.50;;;;;31.12;47.04;98545.06;4896176;29;8869;-67
2020/12/13 08:43:07;;;;;;;;;13.00;9.75;;;;;31.03;45.61;98544.03;4897769;29;8870;-67
2020/12/13 08:45:37;;;;;;;;;11.00;7.75;;;;;31.01;45.16;98540.94;4882588;29;8949;-68
2020/12/13 08:48:10;;;;;;;;;12.00;9.50;;;;;31.01;46.95;98547.16;4895206;29;8878;-68
2020/12/13 08:50:42;;;;;;;;;18.75;17.50;;;;;31.06;44.83;98540.47;4898592;29;8986;-67
2020/12/13 08:53:24;;;;;;;;;8.50;8.50;;;;;31.12;44.78;98544.31;4901890;29;8851;-69
2020/12/13 08:56:05;;;;;;;;;48.00;39.33;;;;;31.14;43.78;98547.41;4915246;29;8877;-66
2020/12/13 08:58:51;;;;;;;;;21.50;20.00;;;;;31.18;44.44;98550.09;4895105;29;9308;-67
2020/12/13 09:01:26;;;;;;;;;8.50;8.00;;;;;31.20;44.35;98551.22;4895640;29;9024;-67
2020/12/13 09:03:56;;;;;;;;;16.75;14.50;;;;;31.23;44.62;98555.84;4906886;29;8867;-68
2020/12/13 09:06:33;;;;;;;;;11.50;9.75;;;;;31.27;45.30;98553.84;4906174;29;9860;-67
2020/12/13 09:09:13;;;;;;;;;11.75;10.00;;;;;31.27;43.32;98553.06;4879158;29;8949;-67
2020/12/13 09:11:42;;;;;;;;;12.75;9.25;;;;;31.34;44.85;98553.75;4894520;29;8952;-67
2020/12/13 09:14:11;;;;;;;;;10.25;9.25;;;;;31.38;43.36;98559.91;4894072;29;8874;-68
2020/12/13 09:16:40;;;;;;;;;9.75;8.75;;;;;31.42;44.55;98552.47;4895439;29;8877;-67
2020/12/13 09:19:12;;;;;;;;;12.00;9.50;;;;;31.39;44.96;98545.09;4893902;29;8866;-67
2020/12/13 09:21:44;;;;;;;;;10.75;9.00;;;;;31.46;45.95;98553.19;4893004;29;8893;-67
2020/12/13 09:24:15;;;;;;;;;10.25;8.75;;;;;31.45;46.49;98559.06;4893854;29;9689;-68
2020/12/13 09:27:18;;;;;;;;;11.25;9.00;;;;;31.34;46.15;98553.75;4895331;29;9598;-69
2020/12/13 09:29:47;;;;;;;;;13.00;10.50;;;;;31.17;43.96;98554.00;4891346;29;8910;-68
2020/12/13 09:32:17;;;;;;;;;8.50;8.50;;;;;31.11;46.04;98564.56;4891934;29;8904;-67
2020/12/13 09:34:47;;;;;;;;;10.75;8.75;;;;;31.04;45.56;98572.81;4894178;29;8857;-67
2020/12/13 09:37:18;;;;;;;;;9.00;7.67;;;;;30.98;45.17;98558.88;4899818;29;8877;-68
2020/12/13 09:39:47;;;;;;;;;9.25;9.25;;;;;30.98;43.81;98571.72;4896310;29;8975;-69
2020/12/13 09:42:16;;;;;;;;;9.00;8.50;;;;;31.04;44.81;98570.09;4894314;29;8868;-67
2020/12/13 09:44:49;;;;;;;;;11.00;9.50;;;;;31.07;43.65;98558.38;4894790;29;8857;-67
2020/12/13 09:47:17;;;;;;;;;14.50;12.00;;;;;31.14;44.21;98566.50;4891394;29;8865;-67
2020/12/13 09:49:46;;;;;;;;;8.50;8.50;;;;;31.10;44.56;98558.34;4896691;29;8874;-67
2020/12/13 09:52:14;;;;;;;;;15.67;14.33;;;;;31.20;43.70;98564.09;4896959;29;8874;-67
2020/12/13 09:54:48;;;;;;;;;11.25;11.25;;;;;31.20;44.21;98572.25;4894612;29;8881;-67
2020/12/13 09:57:16;;;;;;;;;9.00;9.00;;;;;31.22;44.71;98567.91;4890848;29;8880;-67
2020/12/13 09:59:45;;;;;;;;;9.00;8.75;;;;;31.21;45.40;98573.78;4894301;29;8873;-68
2020/12/13 10:02:13;;;;;;;;;11.25;9.75;;;;;31.17;45.70;98575.81;4891647;29;8880;-68
2020/12/13 10:04:42;;;;;;;;;8.75;8.75;;;;;31.01;46.16;98574.41;4893403;29;8857;-67
2020/12/13 10:09:51;;;;;;;;;11.00;8.25;;;;;30.78;46.90;98564.16;4895827;29;8903;-67
2020/12/13 10:12:22;;;;;;;;;8.50;7.50;;;;;30.61;46.66;98556.19;4895671;29;8861;-68
2020/12/13 10:14:50;;;;;;;;;11.00;10.75;;;;;30.55;47.00;98565.94;4894404;29;8884;-69
2020/12/13 10:17:21;;;;;;;;;11.75;11.00;;;;;30.44;47.28;98574.97;4877887;29;8992;-66
2020/12/13 10:19:50;;;;;;;;;11.75;10.75;;;;;30.30;47.24;98569.66;4893912;29;8892;-68
2020/12/13 10:22:18;;;;;;;;;13.50;11.25;;;;;30.14;47.11;98562.03;4877426;29;8853;-67
2020/12/13 10:24:47;;;;;;;;;11.50;10.50;;;;;30.09;47.39;98569.84;4894435;29;8866;-67
2020/12/13 10:27:15;;;;;;;;;11.25;11.25;;;;;30.02;47.20;98578.81;4895037;29;9755;-68
2020/12/13 10:29:44;;;;;;;;;11.75;11.75;;;;;29.92;47.18;98584.31;4895356;29;9024;-68
2020/12/13 10:32:12;;;;;;;;;14.75;14.75;;;;;29.84;47.74;98589.06;4895852;29;8865;-67
2020/12/13 10:34:41;;;;;;;;;11.75;11.75;;;;;29.75;47.80;98589.50;4880322;29;8971;-67
2020/12/13 10:37:09;;;;;;;;;16.50;11.75;;;;;29.71;47.99;98591.47;4896838;29;8869;-67
2020/12/13 10:39:38;;;;;;;;;11.25;11.25;;;;;29.61;47.50;98584.16;4880292;29;8861;-67
2020/12/13 10:42:07;;;;;;;;;14.25;12.00;;;;;29.53;47.67;98585.34;4896663;29;8869;-67
2020/12/13 10:44:35;;;;;;;;;13.50;12.00;;;;;29.49;47.95;98592.75;4896615;29;8869;-68
2020/12/13 10:47:03;;;;;;;;;12.50;12.50;;;;;29.48;47.70;98597.41;4895969;29;8892;-67
2020/12/13 10:49:32;;;;;;;;;15.00;12.00;;;;;29.45;47.78;98608.31;4895777;29;8857;-67
2020/12/13 10:52:01;;;;;;;;;14.50;12.75;;;;;29.40;48.10;98612.19;4895828;29;8874;-67
2020/12/13 10:54:30;;;;;;;;;12.75;11.50;;;;;29.29;48.32;98610.69;4894502;29;8900;-67
2020/12/13 10:56:58;;;;;;;;;14.25;8.25;;;;;29.22;48.09;98606.81;4895089;29;8952;-67
2020/12/13 10:59:27;;;;;;;;;15.50;13.25;;;;;29.16;48.28;98605.69;4876845;29;8937;-67
2020/12/13 11:01:55;;;;;;;;;14.00;9.25;;;;;29.16;48.20;98613.06;4895330;29;8896;-67
2020/12/13 11:04:24;;;;;;;;;19.00;17.00;;;;;29.09;48.58;98619.28;4895168;29;8861;-67
2020/12/13 11:06:53;;;;;;;;;13.00;13.00;;;;;29.00;48.40;98610.78;4895892;29;8853;-66
2020/12/13 11:09:21;;;;;;;;;9.00;9.00;;;;;29.00;48.26;98610.78;4895692;29;8869;-67
2020/12/13 11:11:50;;;;;;;;;14.50;13.25;;;;;29.01;48.54;98623.19;4895074;29;8858;-67
2020/12/13 11:14:18;;;;;;;;;14.50;10.75;;;;;28.99;48.21;98628.25;4895308;29;8861;-67
2020/12/13 11:16:47;;;;;;;;;13.50;11.25;;;;;28.97;48.16;98633.28;4899615;29;8854;-67
2020/12/13 11:19:16;;;;;;;;;19.50;15.75;;;;;28.95;47.95;98641.06;4897001;29;8896;-67
2020/12/13 11:21:45;;;;;;;;;22.00;20.75;;;;;28.94;48.43;98633.28;4899587;29;8869;-67
2020/12/13 11:24:14;;;;;;;;;19.00;18.50;;;;;28.92;48.18;98647.25;4899451;29;8846;-67
2020/12/13 11:26:47;;;;;;;;;10.75;9.00;;;;;28.89;47.97;98645.31;4899630;29;8853;-67
2020/12/13 11:29:16;;;;;;;;;15.75;13.25;;;;;28.87;47.34;98653.09;4897225;29;8853;-67
2020/12/13 11:31:44;;;;;;;;;14.00;13.25;;;;;28.88;47.94;98655.41;4899467;29;9675;-68
2020/12/13 11:34:13;;;;;;;;;15.00;14.50;;;;;28.87;48.23;98655.81;4899618;29;8841;-67
2020/12/13 11:36:42;;;;;;;;;17.50;14.50;;;;;28.86;48.40;98659.69;4899585;29;8865;-67
2020/12/13 11:39:10;;;;;;;;;17.75;14.75;;;;;28.81;47.97;98662.75;4899057;29;9291;-67
2020/12/13 11:41:39;;;;;;;;;15.50;13.75;;;;;28.86;48.14;98670.53;4883219;29;8857;-67
2020/12/13 11:44:08;;;;;;;;;25.75;23.25;;;;;28.83;48.24;98682.19;4899641;29;8929;-67
2020/12/13 11:46:36;;;;;;;;;23.50;23.00;;;;;28.84;48.62;98684.50;4898727;29;8853;-67
2020/12/13 11:49:05;;;;;;;;;18.25;17.75;;;;;28.83;49.83;98688.38;4899145;29;8861;-67
2020/12/13 11:51:33;;;;;;;;;17.00;16.25;;;;;28.82;49.04;98692.28;4898839;29;8861;-67
2020/12/13 11:54:02;;;;;;;;;16.00;13.25;;;;;28.80;49.32;98701.94;4898739;29;8846;-67
2020/12/13 11:56:30;;;;;;;;;10.75;10.75;;;;;28.64;49.50;98682.56;4899013;29;9644;-67